Terminal Aerodrome Forecast
Issued by NWS Greer, SC

Home | Current Version | Previous Version | Text Only | Print | Product List | Glossary On
Versions: 1 2 3 4 5 6 7 8 9 10 11 12 13 14 15 16 17 18 19 20 21 22 23 24 25 26 27 28 29 30 31 32 33 34 35 36 37 38 39 40 41 42 43 44 45 46 47 48 49 50
000
FTUS42 KGSP 182334
TAFAVL
TAF
KAVL 182334Z 1900/1924 33010KT P6SM FEW035
     FM190200 33006KT P6SM FEW150
     FM190900 34004KT 4SM BR FEW130
      TEMPO 1909/1913 2SM BR SCT005
     FM191300 34004KT P6SM FEW100
     FM191600 28003KT P6SM SCT050=

USA.gov is the U.S. government's official web portal to all federal, state and local government web resources and services.